Time;durP1;ratioP1;P1;durP2;ratioP2;P2;SDS_P1;SDS_P2;PMS_P1;PMS_P2;Temp;Humidity;BMP_temperature;BMP_pressure;BME280_temperature;BME280_humidity;BME280_pressure;Samples;Min_cycle;Max_cycle;Signal;HPM_P1;HPM_P2
2023/08/07 00:01:30;;;;;;;3.43;1.93;;;13.60;99.90;;;;;;5053499;28;20185;-69
2023/08/07 00:03:56;;;;;;;3.27;1.60;;;13.60;99.90;;;;;;5053226;28;20204;-69
2023/08/07 00:06:21;;;;;;;4.90;1.53;;;13.50;99.90;;;;;;5053246;28;20167;-69
2023/08/07 00:08:47;;;;;;;2.03;1.80;;;13.70;99.90;;;;;;5053408;28;20175;-68
2023/08/07 00:11:12;;;;;;;4.10;1.43;;;13.60;99.90;;;;;;5052910;28;20621;-69
2023/08/07 00:13:38;;;;;;;3.00;2.00;;;13.70;99.90;;;;;;5052852;28;20581;-68
2023/08/07 00:16:03;;;;;;;3.50;1.50;;;13.70;99.90;;;;;;5053096;28;20198;-68
2023/08/07 00:18:29;;;;;;;2.20;1.57;;;13.60;99.90;;;;;;5053292;28;20170;-68
2023/08/07 00:20:55;;;;;;;3.17;1.70;;;13.60;99.90;;;;;;5052830;28;20224;-69
2023/08/07 00:23:21;;;;;;;4.43;2.07;;;13.50;99.90;;;;;;5053074;28;20527;-70
2023/08/07 00:25:46;;;;;;;2.83;2.00;;;13.60;99.90;;;;;;5052618;28;20181;-69
2023/08/07 00:28:12;;;;;;;2.10;1.67;;;13.60;99.90;;;;;;5052948;28;20203;-69
2023/08/07 00:30:38;;;;;;;3.20;1.77;;;13.60;99.90;;;;;;5053025;28;20759;-69
2023/08/07 00:33:03;;;;;;;2.70;1.40;;;13.60;99.90;;;;;;5053073;28;20187;-69
2023/08/07 00:35:29;;;;;;;3.07;1.67;;;13.60;99.90;;;;;;5052884;28;20170;-69
2023/08/07 00:37:54;;;;;;;6.00;2.20;;;13.70;99.90;;;;;;5052904;28;20643;-69
2023/08/07 00:40:20;;;;;;;2.70;1.90;;;13.80;99.90;;;;;;5052608;28;20675;-69
2023/08/07 00:42:45;;;;;;;2.93;1.90;;;13.70;99.90;;;;;;5052218;28;20669;-68
2023/08/07 00:45:11;;;;;;;4.10;1.67;;;13.70;99.90;;;;;;5052374;28;20539;-69
2023/08/07 00:47:38;;;;;;;4.03;1.80;;;13.80;99.90;;;;;;5052300;28;20230;-69
2023/08/07 00:50:04;;;;;;;5.03;1.93;;;13.60;99.90;;;;;;5052535;28;20172;-68
2023/08/07 00:52:31;;;;;;;3.17;2.13;;;13.70;99.90;;;;;;5052129;28;20413;-69
2023/08/07 00:54:56;;;;;;;2.73;1.70;;;13.80;99.90;;;;;;5052076;28;20791;-69
2023/08/07 00:57:24;;;;;;;1.80;1.53;;;13.70;99.90;;;;;;5052344;28;20428;-69
2023/08/07 00:59:50;;;;;;;2.23;1.80;;;13.80;99.90;;;;;;5052517;28;20268;-69
2023/08/07 01:02:16;;;;;;;2.97;1.90;;;13.90;99.90;;;;;;5052389;28;20405;-69
2023/08/07 01:04:42;;;;;;;2.77;1.80;;;13.90;99.90;;;;;;5052244;28;20205;-69
2023/08/07 01:07:08;;;;;;;2.60;1.80;;;13.80;99.90;;;;;;5052136;28;20398;-69
2023/08/07 01:09:33;;;;;;;2.30;1.97;;;13.80;99.90;;;;;;5052558;28;20278;-69
2023/08/07 01:12:23;;;;;;;2.27;1.80;;;13.90;99.90;;;;;;5051342;28;20169;-69
2023/08/07 01:15:03;;;;;;;3.40;1.80;;;14.00;99.90;;;;;;5051037;28;20704;-69
2023/08/07 01:17:29;;;;;;;2.13;1.60;;;14.10;99.90;;;;;;5052264;28;20447;-68
2023/08/07 01:19:57;;;;;;;3.90;1.93;;;14.00;99.90;;;;;;5052172;28;20474;-70
2023/08/07 01:22:22;;;;;;;7.50;2.30;;;14.10;99.90;;;;;;5051814;28;20262;-69
2023/08/07 01:24:50;;;;;;;2.00;1.80;;;14.00;99.90;;;;;;5051997;28;20462;-69
2023/08/07 01:27:18;;;;;;;2.67;1.70;;;13.80;99.90;;;;;;5051518;28;20172;-69
2023/08/07 01:29:53;;;;;;;2.47;1.50;;;13.80;99.90;;;;;;5051523;28;20406;-69
2023/08/07 01:32:27;;;;;;;3.73;2.17;;;13.80;99.90;;;;;;5051817;28;20539;-69
2023/08/07 01:34:55;;;;;;;3.93;2.10;;;13.70;99.90;;;;;;5051586;28;20450;-69
2023/08/07 01:37:22;;;;;;;3.00;1.90;;;13.60;99.90;;;;;;5051720;28;20403;-69
2023/08/07 01:39:50;;;;;;;2.20;1.80;;;13.70;99.90;;;;;;5047791;28;20405;-70
2023/08/07 01:42:16;;;;;;;3.30;1.77;;;13.80;99.90;;;;;;5051291;28;20399;-69
2023/08/07 01:44:41;;;;;;;3.43;2.40;;;13.90;99.90;;;;;;5051841;28;20432;-70
2023/08/07 01:47:07;;;;;;;5.10;2.63;;;14.00;99.90;;;;;;5052036;28;20637;-69
2023/08/07 01:49:33;;;;;;;2.60;1.70;;;13.90;99.90;;;;;;5051997;28;20174;-69
2023/08/07 01:51:58;;;;;;;2.67;1.60;;;13.80;99.90;;;;;;5051811;28;20178;-70
2023/08/07 01:54:24;;;;;;;2.80;2.10;;;13.80;99.90;;;;;;5051434;28;20512;-70
2023/08/07 01:56:49;;;;;;;3.27;1.60;;;13.80;99.90;;;;;;5050743;28;20204;-70
2023/08/07 01:59:15;;;;;;;3.13;2.10;;;13.80;99.90;;;;;;5051656;28;20171;-68
2023/08/07 02:01:40;;;;;;;4.00;2.10;;;13.80;99.90;;;;;;5051673;28;20174;-69
2023/08/07 02:04:06;;;;;;;1.73;1.60;;;13.80;99.90;;;;;;5051367;28;20198;-70
2023/08/07 02:06:32;;;;;;;2.50;1.63;;;13.80;99.90;;;;;;5051404;28;20176;-68
2023/08/07 02:08:58;;;;;;;2.77;2.00;;;13.80;99.90;;;;;;5051326;28;20910;-68
2023/08/07 02:11:23;;;;;;;6.00;2.00;;;13.70;99.90;;;;;;5050929;28;20672;-68
2023/08/07 02:13:49;;;;;;;4.27;2.47;;;13.70;99.90;;;;;;5051755;28;20579;-68
2023/08/07 02:16:14;;;;;;;3.20;1.80;;;13.70;99.90;;;;;;5051351;28;20235;-69
2023/08/07 02:18:40;;;;;;;3.57;1.73;;;13.80;99.90;;;;;;5051624;28;20183;-69
2023/08/07 02:21:05;;;;;;;3.80;1.40;;;13.80;99.90;;;;;;5051257;28;20164;-68
2023/08/07 02:23:31;;;;;;;2.67;2.13;;;13.80;99.90;;;;;;5051972;28;20198;-69
2023/08/07 02:25:56;;;;;;;4.23;1.80;;;13.90;99.90;;;;;;5055113;28;20252;-69
2023/08/07 02:28:22;;;;;;;4.37;1.90;;;13.80;99.90;;;;;;5055511;28;20580;-69
2023/08/07 02:30:50;;;;;;;2.27;1.50;;;13.90;99.90;;;;;;5055405;28;20594;-69
2023/08/07 02:33:16;;;;;;;4.70;1.80;;;13.90;99.90;;;;;;5055255;28;20199;-69
2023/08/07 02:35:42;;;;;;;2.27;1.73;;;13.90;99.90;;;;;;5055518;28;20402;-69
2023/08/07 02:38:07;;;;;;;2.80;1.80;;;13.90;99.90;;;;;;5055508;28;20234;-69
2023/08/07 02:40:33;;;;;;;3.00;2.17;;;13.90;99.90;;;;;;5037123;28;20169;-70
2023/08/07 02:42:58;;;;;;;2.70;1.83;;;13.80;99.90;;;;;;5055332;28;20177;-69
2023/08/07 02:45:24;;;;;;;2.80;1.80;;;13.80;99.90;;;;;;5055777;28;20288;-69
2023/08/07 02:47:49;;;;;;;4.60;2.33;;;13.70;99.90;;;;;;5038198;28;20166;-69
2023/08/07 02:50:15;;;;;;;4.47;1.97;;;13.70;99.90;;;;;;5055996;28;20179;-69
2023/08/07 02:52:41;;;;;;;4.33;2.20;;;13.60;99.90;;;;;;5055911;28;20633;-69
2023/08/07 02:55:07;;;;;;;2.13;1.50;;;13.60;99.90;;;;;;5055776;28;20712;-69
2023/08/07 02:57:32;;;;;;;3.90;2.20;;;13.60;99.90;;;;;;5055092;28;20177;-69
2023/08/07 02:59:58;;;;;;;3.43;2.07;;;13.50;99.90;;;;;;5055339;28;20413;-69
2023/08/07 03:02:23;;;;;;;3.80;2.37;;;13.40;99.90;;;;;;5055732;28;20167;-69
2023/08/07 03:04:49;;;;;;;3.53;1.83;;;13.50;99.90;;;;;;5054606;28;20292;-68
2023/08/07 03:07:14;;;;;;;2.73;2.10;;;13.60;99.90;;;;;;5054401;28;20218;-67
2023/08/07 03:09:40;;;;;;;3.07;2.00;;;13.50;99.90;;;;;;5054481;28;20206;-68
2023/08/07 03:12:06;;;;;;;4.13;2.50;;;13.50;99.90;;;;;;5054348;28;20565;-68
2023/08/07 03:14:32;;;;;;;4.70;2.30;;;13.40;99.90;;;;;;5054101;28;20726;-69
2023/08/07 03:16:57;;;;;;;3.93;2.00;;;13.40;99.90;;;;;;5054449;28;20198;-68
2023/08/07 03:19:23;;;;;;;2.30;1.90;;;13.40;99.90;;;;;;5054324;28;20435;-69
2023/08/07 03:21:49;;;;;;;3.10;1.80;;;13.40;99.90;;;;;;5054197;28;20181;-69
2023/08/07 03:24:14;;;;;;;3.00;2.17;;;13.30;99.90;;;;;;5053846;28;20937;-69
2023/08/07 03:26:40;;;;;;;4.20;2.23;;;13.30;99.90;;;;;;5053474;28;20185;-68
2023/08/07 03:29:06;;;;;;;3.00;2.47;;;13.30;99.90;;;;;;5054328;28;20171;-68
2023/08/07 03:31:31;;;;;;;4.20;2.37;;;13.30;99.90;;;;;;5053430;28;20406;-68
2023/08/07 03:33:58;;;;;;;6.80;2.23;;;13.30;99.90;;;;;;5053533;28;20245;-68
2023/08/07 03:36:23;;;;;;;5.23;2.07;;;13.30;99.90;;;;;;5053153;28;20174;-68
2023/08/07 03:38:49;;;;;;;3.47;2.43;;;13.30;99.90;;;;;;5053759;28;20501;-68
2023/08/07 03:41:15;;;;;;;4.30;2.13;;;13.30;99.90;;;;;;5053175;28;20165;-69
2023/08/07 03:43:40;;;;;;;2.33;1.70;;;13.30;99.90;;;;;;5053531;28;20200;-68
2023/08/07 03:46:06;;;;;;;4.57;2.10;;;13.30;99.90;;;;;;5053629;28;20179;-68
2023/08/07 03:48:31;;;;;;;2.50;2.23;;;13.30;99.90;;;;;;5053812;28;20170;-68
2023/08/07 03:51:10;;;;;;;3.70;1.77;;;13.20;99.90;;;;;;5053691;28;20176;-69
2023/08/07 03:53:36;;;;;;;6.70;2.20;;;13.30;99.90;;;;;;5053684;28;20598;-69
2023/08/07 03:56:02;;;;;;;5.20;2.47;;;13.30;99.90;;;;;;5053000;28;20739;-68
2023/08/07 03:58:27;;;;;;;3.57;1.90;;;13.30;99.90;;;;;;5053409;28;20481;-67
2023/08/07 04:00:53;;;;;;;6.60;2.03;;;13.30;99.90;;;;;;5053764;28;20169;-68
2023/08/07 04:03:20;;;;;;;2.63;1.90;;;13.20;99.90;;;;;;5053283;28;20527;-69
2023/08/07 04:05:45;;;;;;;3.47;2.03;;;13.20;99.90;;;;;;5053171;28;20176;-68
2023/08/07 04:08:11;;;;;;;2.83;1.60;;;13.20;99.90;;;;;;5053339;28;20926;-68
2023/08/07 04:10:36;;;;;;;3.30;2.40;;;13.20;99.90;;;;;;5053297;28;20197;-69
2023/08/07 04:13:02;;;;;;;3.23;1.73;;;13.20;99.90;;;;;;5052940;28;20189;-68
2023/08/07 04:15:27;;;;;;;5.23;1.90;;;13.20;99.90;;;;;;5053309;28;20163;-67
2023/08/07 04:17:53;;;;;;;2.13;1.80;;;13.20;99.90;;;;;;5053262;28;20170;-69
2023/08/07 04:20:20;;;;;;;7.60;2.50;;;13.20;99.90;;;;;;5053026;28;20181;-68
2023/08/07 04:22:46;;;;;;;2.83;2.20;;;13.20;99.90;;;;;;5052996;28;20642;-69
2023/08/07 04:25:12;;;;;;;3.40;2.00;;;13.20;99.90;;;;;;5052838;28;20432;-69
2023/08/07 04:27:38;;;;;;;5.07;2.10;;;13.10;99.90;;;;;;5052552;28;20547;-69
2023/08/07 04:30:05;;;;;;;6.63;2.40;;;13.10;99.90;;;;;;5052981;28;20641;-69
2023/08/07 04:32:31;;;;;;;4.07;2.20;;;13.20;99.90;;;;;;5052658;28;20485;-68
2023/08/07 04:34:56;;;;;;;3.77;1.80;;;13.30;99.90;;;;;;5052373;28;20615;-70
2023/08/07 04:37:22;;;;;;;3.67;1.70;;;13.20;99.90;;;;;;5052676;28;20159;-69
2023/08/07 04:39:47;;;;;;;2.53;1.73;;;13.30;99.90;;;;;;5052778;28;20615;-69
2023/08/07 04:42:13;;;;;;;3.37;2.20;;;13.30;99.90;;;;;;5051831;28;20175;-68
2023/08/07 04:44:39;;;;;;;3.83;2.10;;;13.40;99.90;;;;;;5052261;28;20302;-68
2023/08/07 04:47:05;;;;;;;4.27;2.07;;;13.50;99.90;;;;;;5051364;28;20159;-68
2023/08/07 04:49:30;;;;;;;3.70;2.17;;;13.50;99.90;;;;;;5052531;28;20215;-69
2023/08/07 04:51:56;;;;;;;6.57;2.20;;;13.50;99.90;;;;;;5052153;28;20410;-69
2023/08/07 04:54:21;;;;;;;3.13;1.90;;;13.60;99.90;;;;;;5052110;28;20192;-69
2023/08/07 04:56:47;;;;;;;3.60;2.40;;;13.50;99.90;;;;;;5052070;28;20208;-69
2023/08/07 04:59:13;;;;;;;2.53;1.90;;;13.70;99.90;;;;;;5052490;28;20532;-68
2023/08/07 05:01:38;;;;;;;3.17;2.03;;;13.70;99.90;;;;;;5052383;28;20610;-69
2023/08/07 05:04:05;;;;;;;4.47;2.93;;;13.70;99.90;;;;;;5052185;28;20236;-68
2023/08/07 05:06:30;;;;;;;6.10;1.70;;;13.60;99.90;;;;;;5052183;28;20216;-70
2023/08/07 05:08:56;;;;;;;3.70;2.00;;;13.60;99.90;;;;;;5052364;28;20455;-69
2023/08/07 05:11:22;;;;;;;3.03;2.00;;;13.60;99.90;;;;;;5051766;28;20405;-69
2023/08/07 05:13:47;;;;;;;4.73;3.40;;;13.70;99.90;;;;;;5052010;28;20205;-70
2023/08/07 05:16:13;;;;;;;3.50;2.00;;;13.80;99.90;;;;;;5052451;28;20170;-69
2023/08/07 05:18:38;;;;;;;3.93;1.70;;;13.70;99.90;;;;;;5051757;28;20678;-69
2023/08/07 05:21:04;;;;;;;4.60;2.20;;;13.70;99.90;;;;;;5051657;28;20616;-70
2023/08/07 05:23:29;;;;;;;4.40;2.40;;;13.80;99.90;;;;;;5051702;28;20201;-69
2023/08/07 05:25:55;;;;;;;4.63;2.40;;;13.80;99.90;;;;;;5050557;28;20176;-69
2023/08/07 05:28:21;;;;;;;2.77;2.00;;;13.90;99.90;;;;;;5051405;28;20177;-69
2023/08/07 05:30:46;;;;;;;3.00;1.80;;;14.00;99.90;;;;;;5051571;28;20374;-69
2023/08/07 05:33:14;;;;;;;3.17;1.70;;;13.90;99.90;;;;;;5051235;28;20629;-69
2023/08/07 05:35:40;;;;;;;3.27;1.83;;;14.00;99.90;;;;;;5051124;28;20289;-69
2023/08/07 05:38:05;;;;;;;2.53;2.30;;;14.00;99.90;;;;;;5051500;28;20404;-69
2023/08/07 05:40:31;;;;;;;3.87;1.90;;;13.90;99.90;;;;;;5051475;28;20169;-69
2023/08/07 05:42:56;;;;;;;2.73;1.90;;;14.10;99.90;;;;;;5051577;28;20199;-68
2023/08/07 05:45:22;;;;;;;7.83;2.00;;;14.20;99.90;;;;;;5051380;28;20167;-69
2023/08/07 05:47:48;;;;;;;4.60;2.03;;;14.30;99.90;;;;;;5051689;28;20581;-69
2023/08/07 05:50:13;;;;;;;4.60;2.17;;;14.20;99.90;;;;;;5051495;28;20217;-69
2023/08/07 05:52:39;;;;;;;8.03;2.43;;;14.20;99.90;;;;;;5051492;28;20177;-69
2023/08/07 05:55:05;;;;;;;2.10;1.70;;;14.40;99.90;;;;;;5051168;28;20230;-69
2023/08/07 05:57:30;;;;;;;3.53;2.20;;;14.40;99.90;;;;;;5051023;28;20181;-69
2023/08/07 05:59:56;;;;;;;2.43;1.87;;;14.60;99.90;;;;;;5051452;28;20407;-69
2023/08/07 06:02:21;;;;;;;3.10;1.73;;;14.60;99.90;;;;;;5051839;28;20278;-70
2023/08/07 06:04:48;;;;;;;4.27;1.97;;;14.60;99.90;;;;;;5050822;28;20199;-68
2023/08/07 06:07:13;;;;;;;3.90;2.10;;;14.50;99.90;;;;;;5051243;28;20263;-69
2023/08/07 06:09:39;;;;;;;3.50;1.90;;;14.50;99.90;;;;;;5051359;28;20477;-68
2023/08/07 06:12:05;;;;;;;3.93;2.17;;;14.50;99.90;;;;;;5050783;28;20169;-68
2023/08/07 06:14:30;;;;;;;3.87;2.30;;;14.60;99.90;;;;;;5050713;28;20209;-68
2023/08/07 06:16:57;;;;;;;3.93;2.10;;;14.60;99.90;;;;;;5051038;28;20185;-69
2023/08/07 06:19:23;;;;;;;5.43;2.00;;;14.80;99.90;;;;;;5051158;28;20511;-68
2023/08/07 06:21:49;;;;;;;3.63;1.90;;;14.70;99.90;;;;;;5050973;28;20411;-68
2023/08/07 06:24:14;;;;;;;4.70;1.97;;;14.60;99.90;;;;;;5051250;28;20268;-68
2023/08/07 06:26:40;;;;;;;5.33;2.40;;;14.60;99.90;;;;;;5050453;28;20171;-68
2023/08/07 06:29:05;;;;;;;2.33;2.00;;;14.70;99.90;;;;;;5050939;28;20170;-68
2023/08/07 06:31:31;;;;;;;2.93;2.00;;;14.70;99.90;;;;;;5050921;28;20170;-68
2023/08/07 06:33:59;;;;;;;4.13;2.33;;;14.80;99.90;;;;;;5050777;28;20204;-68
2023/08/07 06:36:25;;;;;;;3.77;2.07;;;14.90;99.90;;;;;;5051079;28;20224;-68
2023/08/07 06:38:51;;;;;;;5.43;2.20;;;14.90;99.90;;;;;;5051031;28;20414;-68
2023/08/07 06:41:16;;;;;;;4.50;2.27;;;14.90;99.90;;;;;;5050949;28;20408;-68
2023/08/07 06:43:42;;;;;;;4.43;2.30;;;14.80;99.90;;;;;;5050461;28;20246;-68
2023/08/07 06:46:07;;;;;;;2.43;1.50;;;14.80;99.90;;;;;;5050570;28;20208;-69
2023/08/07 06:48:33;;;;;;;3.83;1.97;;;14.90;99.90;;;;;;5032923;28;20174;-69
2023/08/07 06:50:58;;;;;;;4.00;2.27;;;15.00;99.90;;;;;;5051066;28;20170;-68
2023/08/07 06:53:24;;;;;;;3.37;1.80;;;15.10;99.90;;;;;;5050751;28;20630;-68
2023/08/07 06:55:50;;;;;;;2.60;2.20;;;15.20;99.90;;;;;;5050382;28;20726;-68
2023/08/07 06:58:15;;;;;;;3.63;2.17;;;15.30;99.90;;;;;;5050945;28;20164;-68
2023/08/07 07:00:41;;;;;;;4.70;1.90;;;15.30;99.90;;;;;;5050892;28;20174;-69
2023/08/07 07:03:07;;;;;;;4.50;2.17;;;15.40;99.90;;;;;;5050650;28;20177;-68
2023/08/07 07:05:33;;;;;;;2.10;1.60;;;15.50;99.90;;;;;;5050998;28;20164;-69
2023/08/07 07:07:59;;;;;;;4.83;1.90;;;15.50;99.90;;;;;;5050956;28;20739;-69
2023/08/07 07:10:24;;;;;;;2.80;1.80;;;15.50;99.90;;;;;;5053227;28;20169;-69
2023/08/07 07:12:50;;;;;;;4.50;2.30;;;15.60;99.90;;;;;;5054544;28;20229;-70
2023/08/07 07:15:16;;;;;;;2.77;1.67;;;15.80;99.90;;;;;;5054726;28;20226;-69
2023/08/07 07:17:41;;;;;;;2.40;1.70;;;15.60;99.90;;;;;;5036410;28;20265;-70
2023/08/07 07:20:11;;;;;;;2.83;2.10;;;15.70;99.90;;;;;;5054581;28;20570;-69
2023/08/07 07:22:36;;;;;;;4.93;2.30;;;15.50;99.90;;;;;;5054613;28;20170;-70
2023/08/07 07:25:02;;;;;;;2.13;1.83;;;15.60;99.90;;;;;;5054070;28;20550;-70
2023/08/07 07:27:28;;;;;;;2.00;1.50;;;15.50;99.90;;;;;;5053982;28;20178;-68
2023/08/07 07:29:53;;;;;;;2.50;1.60;;;15.60;99.90;;;;;;5054206;28;20587;-70
2023/08/07 07:32:19;;;;;;;2.60;2.00;;;15.80;99.90;;;;;;5054510;28;20180;-69
2023/08/07 07:34:45;;;;;;;3.40;1.90;;;15.80;99.90;;;;;;5053880;28;20199;-69
2023/08/07 07:37:10;;;;;;;3.67;1.83;;;15.60;99.90;;;;;;5053938;28;20176;-69
2023/08/07 07:39:36;;;;;;;2.53;1.60;;;15.70;99.90;;;;;;5053704;28;20264;-69
2023/08/07 07:42:03;;;;;;;4.70;2.10;;;15.70;99.90;;;;;;5053045;28;20541;-70
2023/08/07 07:44:29;;;;;;;3.30;1.73;;;15.80;99.90;;;;;;5053475;28;20186;-69
2023/08/07 07:46:54;;;;;;;5.63;1.93;;;15.90;99.90;;;;;;5053844;28;20764;-69
2023/08/07 07:49:20;;;;;;;3.40;2.00;;;16.00;99.90;;;;;;5053944;28;20202;-69
2023/08/07 07:51:46;;;;;;;2.30;2.00;;;16.20;99.90;;;;;;5053752;28;20489;-69
2023/08/07 07:54:12;;;;;;;2.17;1.97;;;16.30;99.90;;;;;;5053663;28;20197;-69
2023/08/07 07:56:37;;;;;;;4.67;2.00;;;16.40;99.90;;;;;;5053259;28;20544;-69
2023/08/07 07:59:03;;;;;;;2.67;1.93;;;16.30;99.90;;;;;;5053356;28;20162;-70
2023/08/07 08:01:28;;;;;;;2.20;2.00;;;16.40;99.90;;;;;;5052969;28;20706;-70
2023/08/07 08:03:54;;;;;;;4.80;1.60;;;16.40;99.90;;;;;;5053277;28;20190;-68
2023/08/07 08:06:19;;;;;;;4.60;1.50;;;16.40;99.90;;;;;;5053312;28;20259;-69
2023/08/07 08:08:45;;;;;;;4.57;2.20;;;16.60;99.90;;;;;;5053370;28;20597;-69
2023/08/07 08:11:11;;;;;;;2.07;1.50;;;16.50;99.90;;;;;;5052851;28;20174;-69
2023/08/07 08:13:39;;;;;;;2.70;1.57;;;16.30;99.90;;;;;;5053137;28;20508;-69
2023/08/07 08:16:04;;;;;;;2.37;1.50;;;16.00;99.90;;;;;;5052841;28;20165;-70
2023/08/07 08:18:30;;;;;;;4.47;1.97;;;15.90;99.90;;;;;;5052882;28;20465;-70
2023/08/07 08:20:55;;;;;;;2.87;1.10;;;15.90;99.90;;;;;;5051937;28;20219;-69
2023/08/07 08:23:21;;;;;;;3.10;1.90;;;15.70;99.90;;;;;;5052459;28;20219;-69
2023/08/07 08:25:48;;;;;;;2.37;2.07;;;15.80;99.90;;;;;;5052519;28;20176;-69
2023/08/07 08:28:14;;;;;;;5.17;1.70;;;15.80;99.90;;;;;;5048088;28;20200;-69
2023/08/07 08:30:39;;;;;;;2.53;1.80;;;16.10;99.90;;;;;;5052507;28;20416;-70
2023/08/07 08:33:05;;;;;;;3.23;1.53;;;16.30;99.90;;;;;;5052648;28;20201;-70
2023/08/07 08:35:31;;;;;;;3.43;1.60;;;16.50;99.90;;;;;;5052656;28;20327;-70
2023/08/07 08:37:57;;;;;;;2.63;1.80;;;16.80;99.90;;;;;;5052751;28;20170;-70
2023/08/07 08:40:24;;;;;;;2.00;1.73;;;16.90;99.90;;;;;;5052754;28;20398;-70
2023/08/07 08:42:51;;;;;;;2.13;1.60;;;17.00;99.90;;;;;;5052199;28;20175;-70
2023/08/07 08:45:18;;;;;;;2.20;1.60;;;16.90;99.90;;;;;;5038281;28;20462;-70
2023/08/07 08:47:46;;;;;;;2.00;1.57;;;16.70;99.90;;;;;;5058053;28;20401;-70
2023/08/07 08:50:14;;;;;;;7.10;1.90;;;16.60;99.90;;;;;;5057081;28;20401;-70
2023/08/07 08:52:44;;;;;;;1.67;1.30;;;16.60;99.90;;;;;;5057832;28;20962;-70
2023/08/07 08:55:11;;;;;;;2.50;1.40;;;16.80;99.90;;;;;;5057322;28;21004;-71
2023/08/07 08:57:38;;;;;;;3.40;1.17;;;16.80;99.90;;;;;;5058017;28;20881;-70
2023/08/07 09:00:13;;;;;;;1.60;1.20;;;16.80;99.90;;;;;;5039736;28;20489;-70
2023/08/07 09:02:38;;;;;;;1.63;1.33;;;16.90;99.90;;;;;;5057496;28;20400;-70
2023/08/07 09:05:04;;;;;;;2.10;1.60;;;17.00;99.90;;;;;;5056524;28;20425;-70
2023/08/07 09:07:30;;;;;;;1.63;1.23;;;17.20;99.90;;;;;;5040701;28;20182;-70
2023/08/07 09:09:57;;;;;;;2.63;1.40;;;17.30;99.90;;;;;;5055998;28;20462;-70
2023/08/07 09:12:26;;;;;;;1.80;1.10;;;17.40;99.90;;;;;;5052847;28;20405;-70
2023/08/07 09:14:56;;;;;;;2.23;1.30;;;17.80;99.90;;;;;;5049929;28;20863;-70
2023/08/07 09:17:29;;;;;;;3.00;1.80;;;17.90;99.90;;;;;;5054674;28;20391;-70
2023/08/07 09:19:55;;;;;;;2.97;1.20;;;18.30;99.90;;;;;;5058555;28;20958;-69
2023/08/07 09:22:21;;;;;;;1.77;1.13;;;18.30;99.90;;;;;;5058024;28;20398;-69
2023/08/07 09:24:46;;;;;;;2.67;1.50;;;18.00;99.90;;;;;;5057529;28;20432;-69
2023/08/07 09:27:13;;;;;;;2.03;1.50;;;18.00;99.90;;;;;;5056697;28;20195;-70
2023/08/07 09:29:43;;;;;;;1.90;1.67;;;18.00;99.90;;;;;;5039328;28;20668;-70
2023/08/07 09:32:12;;;;;;;3.30;1.40;;;18.00;99.90;;;;;;5056882;28;20400;-69
2023/08/07 09:34:39;;;;;;;1.33;1.10;;;18.10;99.90;;;;;;5055998;28;20532;-69
2023/08/07 09:37:05;;;;;;;2.17;1.20;;;18.20;99.90;;;;;;5036069;28;20402;-68
2023/08/07 09:39:30;;;;;;;4.37;1.27;;;18.10;99.90;;;;;;5058763;28;20463;-69
2023/08/07 09:41:56;;;;;;;6.03;1.67;;;17.80;99.30;;;;;;5057568;28;20185;-70
2023/08/07 09:44:21;;;;;;;4.80;1.23;;;18.10;99.30;;;;;;5058627;28;20193;-70
2023/08/07 09:46:47;;;;;;;1.50;1.20;;;18.10;99.20;;;;;;5057979;28;20178;-69
2023/08/07 09:49:13;;;;;;;4.00;1.30;;;18.00;99.50;;;;;;5052172;28;20182;-68
2023/08/07 09:51:50;;;;;;;1.97;1.43;;;18.00;99.90;;;;;;5052319;28;20300;-69
2023/08/07 09:54:15;;;;;;;4.13;1.43;;;18.10;99.90;;;;;;5048753;28;20198;-69
2023/08/07 09:56:41;;;;;;;3.00;1.73;;;17.90;99.90;;;;;;5051919;28;20938;-69
2023/08/07 09:59:07;;;;;;;2.90;1.40;;;18.00;99.90;;;;;;5051889;28;20219;-69
2023/08/07 10:01:36;;;;;;;4.20;1.53;;;18.10;99.60;;;;;;5051567;28;20182;-69
2023/08/07 10:04:01;;;;;;;3.50;1.40;;;18.10;99.90;;;;;;5051304;28;20436;-69
2023/08/07 10:06:28;;;;;;;4.37;1.57;;;18.00;99.60;;;;;;5034042;28;20836;-68
2023/08/07 10:08:54;;;;;;;2.00;1.40;;;18.00;99.90;;;;;;5051848;28;20405;-69
2023/08/07 10:11:21;;;;;;;3.13;1.53;;;18.10;99.90;;;;;;5051679;28;20496;-69
2023/08/07 10:13:47;;;;;;;2.80;1.50;;;18.40;99.90;;;;;;5051186;28;20452;-69
2023/08/07 10:16:13;;;;;;;3.50;1.90;;;18.70;99.90;;;;;;5052029;28;20822;-69
2023/08/07 10:18:39;;;;;;;4.60;1.53;;;19.00;99.30;;;;;;5051815;28;20408;-68
2023/08/07 10:21:06;;;;;;;2.50;1.67;;;19.40;99.30;;;;;;5047827;28;20770;-69
2023/08/07 10:23:36;;;;;;;1.53;1.30;;;19.40;98.70;;;;;;5051815;28;20559;-69
2023/08/07 10:26:05;;;;;;;4.57;1.70;;;19.50;98.00;;;;;;5049977;28;20413;-69
2023/08/07 10:28:37;;;;;;;3.70;1.50;;;19.60;97.60;;;;;;5051466;28;20448;-69
2023/08/07 10:31:04;;;;;;;3.20;1.50;;;19.40;97.00;;;;;;5051885;28;20484;-69
2023/08/07 10:33:31;;;;;;;2.97;1.77;;;19.10;97.30;;;;;;5047532;28;20808;-69
2023/08/07 10:35:59;;;;;;;1.83;1.70;;;19.00;98.00;;;;;;5051252;28;20405;-69
2023/08/07 10:38:25;;;;;;;1.93;1.30;;;19.00;98.40;;;;;;5051226;28;20419;-69
2023/08/07 10:41:17;;;;;;;2.17;1.70;;;19.00;97.50;;;;;;5051236;28;20398;-69
2023/08/07 10:43:44;;;;;;;2.33;1.40;;;18.70;96.90;;;;;;5049817;28;20420;-69
2023/08/07 10:46:12;;;;;;;1.77;1.50;;;18.60;96.90;;;;;;5054735;28;20911;-69
2023/08/07 10:48:43;;;;;;;1.80;1.13;;;18.60;97.30;;;;;;5055339;28;20397;-69
2023/08/07 10:51:11;;;;;;;1.83;1.57;;;18.50;97.30;;;;;;5051383;28;20550;-69
2023/08/07 10:53:42;;;;;;;3.80;1.83;;;18.60;97.20;;;;;;5054661;28;20487;-68
2023/08/07 10:56:09;;;;;;;4.47;2.10;;;18.50;97.40;;;;;;5053212;28;20409;-68
2023/08/07 10:58:37;;;;;;;2.60;2.00;;;18.30;97.80;;;;;;5054885;28;20423;-69
2023/08/07 11:01:21;;;;;;;3.30;1.50;;;18.50;97.50;;;;;;5055065;28;20405;-70
2023/08/07 11:03:51;;;;;;;4.27;1.90;;;18.30;97.80;;;;;;5053126;28;20545;-70
2023/08/07 11:06:21;;;;;;;3.10;1.73;;;18.40;97.10;;;;;;5054923;28;20903;-69
2023/08/07 11:08:48;;;;;;;4.13;2.00;;;18.60;97.10;;;;;;5051618;28;20412;-69
2023/08/07 11:11:14;;;;;;;2.83;1.70;;;18.80;97.00;;;;;;5054356;28;20415;-68
2023/08/07 11:13:39;;;;;;;2.03;1.67;;;18.90;97.00;;;;;;5054140;28;20456;-69
2023/08/07 11:16:05;;;;;;;1.60;1.50;;;18.90;96.80;;;;;;5054610;28;20167;-69
2023/08/07 11:18:32;;;;;;;1.67;1.57;;;18.90;97.00;;;;;;5054590;28;20176;-69
2023/08/07 11:20:58;;;;;;;1.87;1.60;;;18.60;97.20;;;;;;5054568;28;20969;-69
2023/08/07 11:23:25;;;;;;;2.50;2.03;;;18.40;97.40;;;;;;5054726;28;20425;-69
2023/08/07 11:25:53;;;;;;;2.37;1.77;;;18.10;98.10;;;;;;5054625;28;20167;-68
2023/08/07 11:28:20;;;;;;;1.80;1.47;;;18.20;98.60;;;;;;5053886;28;20405;-68
2023/08/07 11:30:51;;;;;;;3.20;1.93;;;18.20;98.10;;;;;;5054335;28;20989;-68
2023/08/07 11:33:19;;;;;;;2.50;1.70;;;18.10;98.60;;;;;;5053877;28;20505;-69
2023/08/07 11:35:46;;;;;;;3.70;2.60;;;18.10;98.70;;;;;;5053700;28;20401;-67
2023/08/07 11:38:12;;;;;;;3.10;1.90;;;18.00;99.10;;;;;;5054022;28;20409;-68
2023/08/07 11:40:38;;;;;;;2.23;1.70;;;18.00;99.40;;;;;;5053740;28;20427;-68
2023/08/07 11:43:03;;;;;;;2.23;2.03;;;18.00;99.90;;;;;;5053234;28;20536;-70
2023/08/07 11:45:29;;;;;;;2.10;1.83;;;18.10;99.80;;;;;;5053874;28;20517;-68
2023/08/07 11:47:56;;;;;;;2.60;2.20;;;17.80;99.90;;;;;;5053902;28;20169;-68
2023/08/07 11:50:22;;;;;;;1.93;1.60;;;17.80;99.90;;;;;;5053929;28;20633;-69
2023/08/07 11:52:48;;;;;;;2.83;1.70;;;17.60;99.90;;;;;;5035904;28;20402;-69
2023/08/07 11:55:15;;;;;;;5.97;2.60;;;17.60;99.90;;;;;;5053192;28;20570;-69
2023/08/07 11:57:42;;;;;;;3.00;2.10;;;17.70;99.90;;;;;;5053268;28;20637;-69
2023/08/07 12:00:13;;;;;;;2.07;1.80;;;17.80;99.90;;;;;;5054076;28;20504;-69
2023/08/07 12:02:44;;;;;;;2.43;1.77;;;17.80;99.90;;;;;;5053607;28;20884;-68
2023/08/07 12:05:11;;;;;;;2.20;1.60;;;17.50;99.90;;;;;;5049735;28;20429;-68
2023/08/07 12:07:37;;;;;;;2.80;1.80;;;17.30;99.90;;;;;;5053604;28;20412;-69
2023/08/07 12:10:06;;;;;;;2.63;1.60;;;17.40;99.90;;;;;;5053724;28;20414;-69
2023/08/07 12:12:38;;;;;;;2.17;1.80;;;17.60;99.90;;;;;;5053080;28;20424;-69
2023/08/07 12:15:08;;;;;;;3.67;2.20;;;17.50;99.90;;;;;;5050036;28;20460;-70
2023/08/07 12:17:33;;;;;;;2.80;1.93;;;17.70;99.90;;;;;;5049590;28;20405;-70
2023/08/07 12:19:59;;;;;;;2.60;2.30;;;17.70;99.90;;;;;;5053554;28;20431;-69
2023/08/07 12:22:30;;;;;;;2.13;1.93;;;17.60;99.90;;;;;;5053259;28;20642;-69
2023/08/07 12:24:56;;;;;;;3.10;1.97;;;17.80;99.90;;;;;;5053370;28;20187;-68
2023/08/07 12:27:21;;;;;;;2.23;1.80;;;17.70;99.90;;;;;;5052604;28;20921;-69
2023/08/07 12:29:47;;;;;;;2.53;1.80;;;17.70;99.90;;;;;;5053233;28;20548;-69
2023/08/07 12:32:12;;;;;;;1.93;1.40;;;17.70;99.90;;;;;;5052670;28;20171;-68
2023/08/07 12:34:38;;;;;;;6.47;4.23;;;17.80;99.90;;;;;;5048454;28;20273;-68
2023/08/07 12:37:04;;;;;;;13.90;9.33;;;17.90;99.90;;;;;;5052714;28;20170;-69
2023/08/07 12:39:30;;;;;;;13.80;8.60;;;18.30;99.90;;;;;;5052871;28;20258;-70
2023/08/07 12:41:55;;;;;;;5.00;3.50;;;18.40;99.90;;;;;;5052412;28;20448;-69
2023/08/07 12:44:21;;;;;;;2.60;1.87;;;18.50;99.90;;;;;;5052209;28;20293;-69